sensor_id;sensor_type;location;lat;lon;timestamp;temperature;humidity
1417;DHT22;703;51.162;13.574;2023-08-30T00:01:39;13.50;99.90
1417;DHT22;703;51.162;13.574;2023-08-30T00:04:05;13.60;99.90
1417;DHT22;703;51.162;13.574;2023-08-30T00:06:30;13.50;99.90
1417;DHT22;703;51.162;13.574;2023-08-30T00:08:57;13.50;99.90
1417;DHT22;703;51.162;13.574;2023-08-30T00:11:23;13.60;99.90
1417;DHT22;703;51.162;13.574;2023-08-30T00:13:49;13.50;99.90
1417;DHT22;703;51.162;13.574;2023-08-30T00:16:14;13.60;99.90
1417;DHT22;703;51.162;13.574;2023-08-30T00:18:42;13.60;99.90
1417;DHT22;703;51.162;13.574;2023-08-30T00:21:07;13.60;99.90
1417;DHT22;703;51.162;13.574;2023-08-30T00:23:33;13.70;99.90
1417;DHT22;703;51.162;13.574;2023-08-30T00:25:59;13.60;99.90
1417;DHT22;703;51.162;13.574;2023-08-30T00:28:24;13.60;99.90
1417;DHT22;703;51.162;13.574;2023-08-30T00:30:54;13.60;99.90
1417;DHT22;703;51.162;13.574;2023-08-30T00:33:20;13.60;99.90
1417;DHT22;703;51.162;13.574;2023-08-30T00:35:45;13.60;99.90
1417;DHT22;703;51.162;13.574;2023-08-30T00:38:11;13.60;99.90
1417;DHT22;703;51.162;13.574;2023-08-30T00:40:39;13.60;99.90
1417;DHT22;703;51.162;13.574;2023-08-30T00:43:06;13.60;99.90
1417;DHT22;703;51.162;13.574;2023-08-30T00:45:31;13.60;99.90
1417;DHT22;703;51.162;13.574;2023-08-30T00:47:57;13.60;99.90
1417;DHT22;703;51.162;13.574;2023-08-30T00:50:23;13.60;99.90
1417;DHT22;703;51.162;13.574;2023-08-30T00:52:49;13.60;99.90
1417;DHT22;703;51.162;13.574;2023-08-30T00:55:14;13.60;99.90
1417;DHT22;703;51.162;13.574;2023-08-30T00:57:40;13.60;99.90
1417;DHT22;703;51.162;13.574;2023-08-30T01:00:06;13.60;99.90
1417;DHT22;703;51.162;13.574;2023-08-30T01:02:32;13.60;99.90
1417;DHT22;703;51.162;13.574;2023-08-30T01:04:58;13.60;99.90
1417;DHT22;703;51.162;13.574;2023-08-30T01:07:23;13.60;99.90
1417;DHT22;703;51.162;13.574;2023-08-30T01:09:49;13.60;99.90
1417;DHT22;703;51.162;13.574;2023-08-30T01:12:25;13.60;99.90
1417;DHT22;703;51.162;13.574;2023-08-30T01:15:06;13.60;99.90
1417;DHT22;703;51.162;13.574;2023-08-30T01:17:32;13.50;99.90
1417;DHT22;703;51.162;13.574;2023-08-30T01:20:00;13.60;99.90
1417;DHT22;703;51.162;13.574;2023-08-30T01:25:08;13.60;99.90
1417;DHT22;703;51.162;13.574;2023-08-30T01:27:35;13.60;99.90
1417;DHT22;703;51.162;13.574;2023-08-30T01:30:02;13.60;99.90
1417;DHT22;703;51.162;13.574;2023-08-30T01:32:28;13.60;99.90
1417;DHT22;703;51.162;13.574;2023-08-30T01:34:54;13.60;99.90
1417;DHT22;703;51.162;13.574;2023-08-30T01:37:20;13.60;99.90
1417;DHT22;703;51.162;13.574;2023-08-30T01:39:46;13.60;99.90
1417;DHT22;703;51.162;13.574;2023-08-30T01:42:12;13.50;99.90
1417;DHT22;703;51.162;13.574;2023-08-30T01:44:40;13.50;99.90
1417;DHT22;703;51.162;13.574;2023-08-30T01:47:06;13.50;99.90
1417;DHT22;703;51.162;13.574;2023-08-30T01:49:32;13.50;99.90
1417;DHT22;703;51.162;13.574;2023-08-30T01:51:58;15.90;99.90
1417;DHT22;703;51.162;13.574;2023-08-30T01:54:24;13.50;99.90
1417;DHT22;703;51.162;13.574;2023-08-30T01:56:50;13.50;99.90
1417;DHT22;703;51.162;13.574;2023-08-30T01:59:15;13.50;99.90
1417;DHT22;703;51.162;13.574;2023-08-30T02:01:41;13.50;99.90
1417;DHT22;703;51.162;13.574;2023-08-30T02:04:06;13.50;99.90
1417;DHT22;703;51.162;13.574;2023-08-30T02:09:13;13.50;99.90
1417;DHT22;703;51.162;13.574;2023-08-30T02:11:40;13.40;99.90
1417;DHT22;703;51.162;13.574;2023-08-30T02:14:08;13.50;99.90
1417;DHT22;703;51.162;13.574;2023-08-30T02:16:35;13.50;99.90
1417;DHT22;703;51.162;13.574;2023-08-30T02:19:01;13.40;99.90
1417;DHT22;703;51.162;13.574;2023-08-30T02:21:27;13.50;99.90
1417;DHT22;703;51.162;13.574;2023-08-30T02:23:53;13.50;99.90
1417;DHT22;703;51.162;13.574;2023-08-30T02:26:19;13.50;99.90
1417;DHT22;703;51.162;13.574;2023-08-30T02:28:45;13.50;99.90
1417;DHT22;703;51.162;13.574;2023-08-30T02:31:10;13.50;99.90
1417;DHT22;703;51.162;13.574;2023-08-30T02:33:36;13.50;99.90
1417;DHT22;703;51.162;13.574;2023-08-30T02:36:03;13.50;99.90
1417;DHT22;703;51.162;13.574;2023-08-30T02:38:28;13.60;99.90
1417;DHT22;703;51.162;13.574;2023-08-30T02:40:54;13.50;99.90
1417;DHT22;703;51.162;13.574;2023-08-30T02:43:19;13.50;99.90
1417;DHT22;703;51.162;13.574;2023-08-30T02:45:45;13.50;99.90
1417;DHT22;703;51.162;13.574;2023-08-30T02:48:10;13.50;99.90
1417;DHT22;703;51.162;13.574;2023-08-30T02:50:36;13.50;99.90
1417;DHT22;703;51.162;13.574;2023-08-30T02:53:01;13.60;99.90
1417;DHT22;703;51.162;13.574;2023-08-30T02:55:27;13.50;99.90
1417;DHT22;703;51.162;13.574;2023-08-30T02:57:52;13.60;99.90
1417;DHT22;703;51.162;13.574;2023-08-30T03:00:18;13.50;99.90
1417;DHT22;703;51.162;13.574;2023-08-30T03:02:44;13.50;99.90
1417;DHT22;703;51.162;13.574;2023-08-30T03:05:09;13.60;99.90
1417;DHT22;703;51.162;13.574;2023-08-30T03:07:35;13.50;99.90
1417;DHT22;703;51.162;13.574;2023-08-30T03:10:00;13.50;99.90
1417;DHT22;703;51.162;13.574;2023-08-30T03:12:26;13.50;99.90
1417;DHT22;703;51.162;13.574;2023-08-30T03:14:51;13.50;99.90
1417;DHT22;703;51.162;13.574;2023-08-30T03:17:17;13.50;99.90
1417;DHT22;703;51.162;13.574;2023-08-30T03:19:42;13.50;99.90
1417;DHT22;703;51.162;13.574;2023-08-30T03:22:08;13.50;99.90
1417;DHT22;703;51.162;13.574;2023-08-30T03:24:33;13.50;99.90
1417;DHT22;703;51.162;13.574;2023-08-30T03:27:00;13.50;99.90
1417;DHT22;703;51.162;13.574;2023-08-30T03:29:25;13.50;99.90
1417;DHT22;703;51.162;13.574;2023-08-30T03:31:51;13.50;99.90
1417;DHT22;703;51.162;13.574;2023-08-30T03:34:16;13.50;99.90
1417;DHT22;703;51.162;13.574;2023-08-30T03:36:42;13.50;99.90
1417;DHT22;703;51.162;13.574;2023-08-30T03:39:09;13.50;99.90
1417;DHT22;703;51.162;13.574;2023-08-30T03:41:34;13.50;99.90
1417;DHT22;703;51.162;13.574;2023-08-30T03:44:00;13.40;99.90
1417;DHT22;703;51.162;13.574;2023-08-30T03:46:25;13.40;99.90
1417;DHT22;703;51.162;13.574;2023-08-30T03:48:51;13.40;99.90
1417;DHT22;703;51.162;13.574;2023-08-30T03:51:17;13.50;99.90
1417;DHT22;703;51.162;13.574;2023-08-30T03:53:43;13.50;99.90
1417;DHT22;703;51.162;13.574;2023-08-30T03:56:08;13.50;99.90
1417;DHT22;703;51.162;13.574;2023-08-30T03:58:34;13.50;99.90
1417;DHT22;703;51.162;13.574;2023-08-30T04:00:59;13.50;99.90
1417;DHT22;703;51.162;13.574;2023-08-30T04:03:25;13.50;99.90
1417;DHT22;703;51.162;13.574;2023-08-30T04:05:56;13.50;99.90
1417;DHT22;703;51.162;13.574;2023-08-30T04:08:24;13.40;99.90
1417;DHT22;703;51.162;13.574;2023-08-30T04:10:51;13.40;99.90
1417;DHT22;703;51.162;13.574;2023-08-30T04:13:17;13.40;99.90
1417;DHT22;703;51.162;13.574;2023-08-30T04:15:42;13.40;99.90
1417;DHT22;703;51.162;13.574;2023-08-30T04:18:08;13.50;99.90
1417;DHT22;703;51.162;13.574;2023-08-30T04:20:34;13.40;99.90
1417;DHT22;703;51.162;13.574;2023-08-30T04:23:00;13.40;99.90
1417;DHT22;703;51.162;13.574;2023-08-30T04:25:31;13.50;99.90
1417;DHT22;703;51.162;13.574;2023-08-30T04:27:56;13.50;99.90
1417;DHT22;703;51.162;13.574;2023-08-30T04:30:22;13.50;99.90
1417;DHT22;703;51.162;13.574;2023-08-30T04:32:48;13.50;99.90
1417;DHT22;703;51.162;13.574;2023-08-30T04:35:13;13.50;99.90
1417;DHT22;703;51.162;13.574;2023-08-30T04:37:39;13.40;99.90
1417;DHT22;703;51.162;13.574;2023-08-30T04:40:08;13.40;99.90
1417;DHT22;703;51.162;13.574;2023-08-30T04:42:34;13.40;99.90
1417;DHT22;703;51.162;13.574;2023-08-30T04:45:01;13.40;99.90
1417;DHT22;703;51.162;13.574;2023-08-30T04:47:27;13.40;99.90
1417;DHT22;703;51.162;13.574;2023-08-30T04:49:53;13.40;99.90
1417;DHT22;703;51.162;13.574;2023-08-30T04:52:19;13.40;99.90
1417;DHT22;703;51.162;13.574;2023-08-30T04:54:44;13.50;99.90
1417;DHT22;703;51.162;13.574;2023-08-30T04:57:14;13.40;99.90
1417;DHT22;703;51.162;13.574;2023-08-30T04:59:44;13.50;99.90
1417;DHT22;703;51.162;13.574;2023-08-30T05:02:10;13.50;99.90
1417;DHT22;703;51.162;13.574;2023-08-30T05:04:36;13.50;99.90
1417;DHT22;703;51.162;13.574;2023-08-30T05:07:02;13.60;99.90
1417;DHT22;703;51.162;13.574;2023-08-30T05:09:28;13.50;99.90
1417;DHT22;703;51.162;13.574;2023-08-30T05:11:53;13.60;99.90
1417;DHT22;703;51.162;13.574;2023-08-30T05:14:19;13.60;99.90
1417;DHT22;703;51.162;13.574;2023-08-30T05:16:45;13.60;99.90
1417;DHT22;703;51.162;13.574;2023-08-30T05:19:10;13.50;99.90
1417;DHT22;703;51.162;13.574;2023-08-30T05:21:36;13.60;99.90
1417;DHT22;703;51.162;13.574;2023-08-30T05:24:02;13.60;99.90
1417;DHT22;703;51.162;13.574;2023-08-30T05:26:27;13.50;99.90
1417;DHT22;703;51.162;13.574;2023-08-30T05:28:53;13.60;99.90
1417;DHT22;703;51.162;13.574;2023-08-30T05:31:18;13.60;99.90
1417;DHT22;703;51.162;13.574;2023-08-30T05:33:44;13.70;99.90
1417;DHT22;703;51.162;13.574;2023-08-30T05:36:09;13.70;99.90
1417;DHT22;703;51.162;13.574;2023-08-30T05:38:35;13.70;99.90
1417;DHT22;703;51.162;13.574;2023-08-30T05:41:00;14.10;99.90
1417;DHT22;703;51.162;13.574;2023-08-30T05:43:26;13.70;99.90
1417;DHT22;703;51.162;13.574;2023-08-30T05:45:51;13.80;99.90
1417;DHT22;703;51.162;13.574;2023-08-30T05:48:17;13.80;99.90
1417;DHT22;703;51.162;13.574;2023-08-30T05:50:43;13.80;99.90
1417;DHT22;703;51.162;13.574;2023-08-30T05:53:10;13.80;99.90
1417;DHT22;703;51.162;13.574;2023-08-30T05:55:36;13.80;99.90
1417;DHT22;703;51.162;13.574;2023-08-30T05:58:05;13.80;99.90
1417;DHT22;703;51.162;13.574;2023-08-30T06:00:30;13.80;99.90
1417;DHT22;703;51.162;13.574;2023-08-30T06:02:56;13.90;99.90
1417;DHT22;703;51.162;13.574;2023-08-30T06:05:21;13.90;99.90
1417;DHT22;703;51.162;13.574;2023-08-30T06:07:47;13.90;99.90
1417;DHT22;703;51.162;13.574;2023-08-30T06:10:12;13.90;99.90
1417;DHT22;703;51.162;13.574;2023-08-30T06:12:38;14.00;99.90
1417;DHT22;703;51.162;13.574;2023-08-30T06:15:04;14.00;99.90
1417;DHT22;703;51.162;13.574;2023-08-30T06:17:30;14.00;99.90
1417;DHT22;703;51.162;13.574;2023-08-30T06:19:55;14.00;99.90
1417;DHT22;703;51.162;13.574;2023-08-30T06:22:21;14.00;99.90
1417;DHT22;703;51.162;13.574;2023-08-30T06:24:47;14.00;99.90
1417;DHT22;703;51.162;13.574;2023-08-30T06:27:12;14.00;99.90
1417;DHT22;703;51.162;13.574;2023-08-30T06:29:38;14.00;99.90
1417;DHT22;703;51.162;13.574;2023-08-30T06:32:03;14.10;99.90
1417;DHT22;703;51.162;13.574;2023-08-30T06:34:29;14.10;99.90
1417;DHT22;703;51.162;13.574;2023-08-30T06:36:55;14.10;99.90
1417;DHT22;703;51.162;13.574;2023-08-30T06:39:20;14.20;99.90
1417;DHT22;703;51.162;13.574;2023-08-30T06:41:46;14.30;99.90
1417;DHT22;703;51.162;13.574;2023-08-30T06:44:11;14.30;99.90
1417;DHT22;703;51.162;13.574;2023-08-30T06:46:37;14.40;99.90
1417;DHT22;703;51.162;13.574;2023-08-30T06:49:03;14.40;99.90
1417;DHT22;703;51.162;13.574;2023-08-30T06:51:29;14.50;99.90
1417;DHT22;703;51.162;13.574;2023-08-30T06:53:54;14.60;99.90
1417;DHT22;703;51.162;13.574;2023-08-30T06:56:22;14.60;99.90
1417;DHT22;703;51.162;13.574;2023-08-30T06:58:48;14.50;99.90
1417;DHT22;703;51.162;13.574;2023-08-30T07:01:13;14.60;99.90
1417;DHT22;703;51.162;13.574;2023-08-30T07:03:39;14.60;99.90
1417;DHT22;703;51.162;13.574;2023-08-30T07:06:05;14.60;99.90
1417;DHT22;703;51.162;13.574;2023-08-30T07:08:31;14.70;99.90
1417;DHT22;703;51.162;13.574;2023-08-30T07:10:57;14.80;99.90
1417;DHT22;703;51.162;13.574;2023-08-30T07:13:23;14.90;99.90
1417;DHT22;703;51.162;13.574;2023-08-30T07:15:48;14.80;99.90
1417;DHT22;703;51.162;13.574;2023-08-30T07:18:14;14.80;99.90
1417;DHT22;703;51.162;13.574;2023-08-30T07:20:39;14.90;99.90
1417;DHT22;703;51.162;13.574;2023-08-30T07:23:05;14.90;99.90
1417;DHT22;703;51.162;13.574;2023-08-30T07:25:30;15.10;99.90
1417;DHT22;703;51.162;13.574;2023-08-30T07:27:58;15.20;99.90
1417;DHT22;703;51.162;13.574;2023-08-30T07:30:24;15.10;99.90
1417;DHT22;703;51.162;13.574;2023-08-30T07:32:49;15.10;99.90
1417;DHT22;703;51.162;13.574;2023-08-30T07:35:15;15.00;99.90
1417;DHT22;703;51.162;13.574;2023-08-30T07:37:40;15.20;99.90
1417;DHT22;703;51.162;13.574;2023-08-30T07:40:06;15.20;99.90
1417;DHT22;703;51.162;13.574;2023-08-30T07:42:32;15.10;99.90
1417;DHT22;703;51.162;13.574;2023-08-30T07:44:57;15.10;99.90
1417;DHT22;703;51.162;13.574;2023-08-30T07:47:23;15.00;99.90
1417;DHT22;703;51.162;13.574;2023-08-30T07:49:48;15.10;99.90
1417;DHT22;703;51.162;13.574;2023-08-30T07:52:14;15.10;99.90
1417;DHT22;703;51.162;13.574;2023-08-30T07:54:40;15.10;99.90
1417;DHT22;703;51.162;13.574;2023-08-30T07:57:05;15.20;99.90
1417;DHT22;703;51.162;13.574;2023-08-30T07:59:37;15.30;99.90
1417;DHT22;703;51.162;13.574;2023-08-30T08:02:03;15.30;99.90
1417;DHT22;703;51.162;13.574;2023-08-30T08:04:31;15.40;99.90
1417;DHT22;703;51.162;13.574;2023-08-30T08:06:57;15.40;99.90
1417;DHT22;703;51.162;13.574;2023-08-30T08:09:22;15.40;99.90
1417;DHT22;703;51.162;13.574;2023-08-30T08:11:48;15.50;99.90
1417;DHT22;703;51.162;13.574;2023-08-30T08:14:14;15.50;99.90
1417;DHT22;703;51.162;13.574;2023-08-30T08:16:40;15.60;99.90
1417;DHT22;703;51.162;13.574;2023-08-30T08:19:05;15.70;99.90
1417;DHT22;703;51.162;13.574;2023-08-30T08:21:32;15.80;99.90
1417;DHT22;703;51.162;13.574;2023-08-30T08:23:58;15.90;99.90
1417;DHT22;703;51.162;13.574;2023-08-30T08:26:24;16.10;99.90
1417;DHT22;703;51.162;13.574;2023-08-30T08:28:50;16.10;99.90
1417;DHT22;703;51.162;13.574;2023-08-30T08:31:16;16.10;99.90
1417;DHT22;703;51.162;13.574;2023-08-30T08:33:41;16.30;99.90
1417;DHT22;703;51.162;13.574;2023-08-30T08:36:06;16.40;99.90
1417;DHT22;703;51.162;13.574;2023-08-30T08:38:32;16.50;99.90
1417;DHT22;703;51.162;13.574;2023-08-30T08:41:01;16.60;99.90
1417;DHT22;703;51.162;13.574;2023-08-30T08:43:29;16.70;99.90
1417;DHT22;703;51.162;13.574;2023-08-30T08:45:59;16.80;99.90
1417;DHT22;703;51.162;13.574;2023-08-30T08:48:25;16.70;99.90
1417;DHT22;703;51.162;13.574;2023-08-30T08:50:50;16.70;99.90
1417;DHT22;703;51.162;13.574;2023-08-30T08:53:16;16.90;99.90
1417;DHT22;703;51.162;13.574;2023-08-30T08:55:42;16.90;99.90
1417;DHT22;703;51.162;13.574;2023-08-30T08:58:08;16.90;99.90
1417;DHT22;703;51.162;13.574;2023-08-30T09:00:34;17.00;99.90
1417;DHT22;703;51.162;13.574;2023-08-30T09:02:59;17.20;99.90
1417;DHT22;703;51.162;13.574;2023-08-30T09:05:25;17.10;99.90
1417;DHT22;703;51.162;13.574;2023-08-30T09:07:52;17.30;99.90
1417;DHT22;703;51.162;13.574;2023-08-30T09:10:20;17.40;99.90
1417;DHT22;703;51.162;13.574;2023-08-30T09:12:45;17.50;99.90
1417;DHT22;703;51.162;13.574;2023-08-30T09:15:11;17.60;99.90
1417;DHT22;703;51.162;13.574;2023-08-30T09:17:37;17.50;99.90
1417;DHT22;703;51.162;13.574;2023-08-30T09:20:06;17.60;99.90
1417;DHT22;703;51.162;13.574;2023-08-30T09:22:36;17.60;99.90
1417;DHT22;703;51.162;13.574;2023-08-30T09:25:01;17.70;99.90
1417;DHT22;703;51.162;13.574;2023-08-30T09:27:33;17.90;99.90
1417;DHT22;703;51.162;13.574;2023-08-30T09:29:59;18.50;99.90
1417;DHT22;703;51.162;13.574;2023-08-30T09:32:24;18.80;99.90
1417;DHT22;703;51.162;13.574;2023-08-30T09:34:50;18.90;99.90
1417;DHT22;703;51.162;13.574;2023-08-30T09:37:22;18.50;99.90
1417;DHT22;703;51.162;13.574;2023-08-30T09:39:49;18.40;99.90
1417;DHT22;703;51.162;13.574;2023-08-30T09:42:16;18.40;99.90
1417;DHT22;703;51.162;13.574;2023-08-30T09:44:41;18.60;99.90
1417;DHT22;703;51.162;13.574;2023-08-30T09:47:07;18.60;99.90
1417;DHT22;703;51.162;13.574;2023-08-30T09:49:34;18.50;99.90
1417;DHT22;703;51.162;13.574;2023-08-30T09:52:04;18.40;99.90
1417;DHT22;703;51.162;13.574;2023-08-30T09:54:33;18.50;99.90
1417;DHT22;703;51.162;13.574;2023-08-30T09:56:59;18.30;99.90
1417;DHT22;703;51.162;13.574;2023-08-30T09:59:26;18.40;99.90
1417;DHT22;703;51.162;13.574;2023-08-30T10:01:52;18.60;99.90
1417;DHT22;703;51.162;13.574;2023-08-30T10:04:18;18.50;99.90
1417;DHT22;703;51.162;13.574;2023-08-30T10:06:44;18.70;99.90
1417;DHT22;703;51.162;13.574;2023-08-30T10:09:10;18.90;99.90
1417;DHT22;703;51.162;13.574;2023-08-30T10:11:36;19.10;99.90
1417;DHT22;703;51.162;13.574;2023-08-30T10:14:05;19.20;99.90
1417;DHT22;703;51.162;13.574;2023-08-30T10:16:40;19.50;99.90
1417;DHT22;703;51.162;13.574;2023-08-30T10:19:08;19.70;99.90
1417;DHT22;703;51.162;13.574;2023-08-30T10:21:34;19.60;99.90
1417;DHT22;703;51.162;13.574;2023-08-30T10:24:01;19.40;99.90
1417;DHT22;703;51.162;13.574;2023-08-30T10:26:28;19.60;99.90
1417;DHT22;703;51.162;13.574;2023-08-30T10:28:55;19.70;99.90
1417;DHT22;703;51.162;13.574;2023-08-30T10:31:21;19.80;99.90
1417;DHT22;703;51.162;13.574;2023-08-30T10:33:50;19.90;99.90
1417;DHT22;703;51.162;13.574;2023-08-30T10:36:26;19.80;99.90
1417;DHT22;703;51.162;13.574;2023-08-30T10:38:54;19.90;99.90
1417;DHT22;703;51.162;13.574;2023-08-30T10:41:21;19.60;99.90
1417;DHT22;703;51.162;13.574;2023-08-30T10:43:57;19.70;99.90
1417;DHT22;703;51.162;13.574;2023-08-30T10:46:32;19.80;99.90
1417;DHT22;703;51.162;13.574;2023-08-30T10:49:08;20.30;99.90
1417;DHT22;703;51.162;13.574;2023-08-30T10:51:35;20.50;99.90
1417;DHT22;703;51.162;13.574;2023-08-30T10:56:35;20.80;99.90
1417;DHT22;703;51.162;13.574;2023-08-30T10:59:21;20.20;99.90
1417;DHT22;703;51.162;13.574;2023-08-30T11:01:47;20.20;99.90
1417;DHT22;703;51.162;13.574;2023-08-30T11:04:14;21.20;99.90
1417;DHT22;703;51.162;13.574;2023-08-30T11:06:39;21.50;99.90
1417;DHT22;703;51.162;13.574;2023-08-30T11:09:05;21.40;99.90
1417;DHT22;703;51.162;13.574;2023-08-30T11:11:31;21.40;99.90
1417;DHT22;703;51.162;13.574;2023-08-30T11:14:06;21.30;99.90
1417;DHT22;703;51.162;13.574;2023-08-30T11:16:32;20.40;99.90
1417;DHT22;703;51.162;13.574;2023-08-30T11:19:00;20.10;99.90
1417;DHT22;703;51.162;13.574;2023-08-30T11:21:26;20.00;99.90
1417;DHT22;703;51.162;13.574;2023-08-30T11:23:52;19.90;99.90
1417;DHT22;703;51.162;13.574;2023-08-30T11:26:17;20.70;99.90
1417;DHT22;703;51.162;13.574;2023-08-30T11:28:43;20.90;99.90
1417;DHT22;703;51.162;13.574;2023-08-30T11:31:17;21.20;99.90
1417;DHT22;703;51.162;13.574;2023-08-30T11:33:49;21.60;99.90
1417;DHT22;703;51.162;13.574;2023-08-30T11:36:15;21.40;99.90
1417;DHT22;703;51.162;13.574;2023-08-30T11:38:40;21.30;99.90
1417;DHT22;703;51.162;13.574;2023-08-30T11:41:06;22.00;99.90
1417;DHT22;703;51.162;13.574;2023-08-30T11:43:31;22.30;99.90
1417;DHT22;703;51.162;13.574;2023-08-30T11:45:57;22.00;99.90
1417;DHT22;703;51.162;13.574;2023-08-30T11:48:23;22.00;99.90
1417;DHT22;703;51.162;13.574;2023-08-30T11:50:48;21.90;99.90
1417;DHT22;703;51.162;13.574;2023-08-30T11:53:14;22.40;99.90
1417;DHT22;703;51.162;13.574;2023-08-30T11:55:40;21.80;99.90
1417;DHT22;703;51.162;13.574;2023-08-30T11:58:05;22.00;99.90
1417;DHT22;703;51.162;13.574;2023-08-30T12:00:32;22.10;99.90
1417;DHT22;703;51.162;13.574;2023-08-30T12:02:58;22.50;99.90
1417;DHT22;703;51.162;13.574;2023-08-30T12:05:23;22.70;99.90
1417;DHT22;703;51.162;13.574;2023-08-30T12:07:49;23.20;99.90
1417;DHT22;703;51.162;13.574;2023-08-30T12:10:17;22.90;99.90
1417;DHT22;703;51.162;13.574;2023-08-30T12:12:45;23.10;99.90
1417;DHT22;703;51.162;13.574;2023-08-30T12:15:11;22.60;99.90
1417;DHT22;703;51.162;13.574;2023-08-30T12:17:37;21.50;99.90
1417;DHT22;703;51.162;13.574;2023-08-30T12:20:03;21.20;99.90
1417;DHT22;703;51.162;13.574;2023-08-30T12:22:39;21.10;99.90
1417;DHT22;703;51.162;13.574;2023-08-30T12:25:26;20.90;99.90
1417;DHT22;703;51.162;13.574;2023-08-30T12:27:51;20.80;99.90
1417;DHT22;703;51.162;13.574;2023-08-30T12:30:18;20.60;99.90
1417;DHT22;703;51.162;13.574;2023-08-30T12:32:44;20.50;99.90
1417;DHT22;703;51.162;13.574;2023-08-30T12:35:10;20.50;99.90
1417;DHT22;703;51.162;13.574;2023-08-30T12:37:35;20.50;99.90
1417;DHT22;703;51.162;13.574;2023-08-30T12:40:01;20.60;99.90
1417;DHT22;703;51.162;13.574;2023-08-30T12:42:26;20.60;99.90
1417;DHT22;703;51.162;13.574;2023-08-30T12:44:52;20.60;99.90
1417;DHT22;703;51.162;13.574;2023-08-30T12:47:17;20.80;99.90
1417;DHT22;703;51.162;13.574;2023-08-30T12:49:43;20.60;99.90
1417;DHT22;703;51.162;13.574;2023-08-30T12:52:08;20.50;99.90
1417;DHT22;703;51.162;13.574;2023-08-30T12:54:34;21.20;99.90
1417;DHT22;703;51.162;13.574;2023-08-30T12:56:59;22.00;99.90
1417;DHT22;703;51.162;13.574;2023-08-30T12:59:25;22.60;99.90
1417;DHT22;703;51.162;13.574;2023-08-30T13:01:50;22.50;99.90
1417;DHT22;703;51.162;13.574;2023-08-30T13:04:16;22.50;99.90
1417;DHT22;703;51.162;13.574;2023-08-30T13:06:41;22.90;99.90
1417;DHT22;703;51.162;13.574;2023-08-30T13:09:07;23.10;99.90
1417;DHT22;703;51.162;13.574;2023-08-30T13:11:32;22.60;99.90
1417;DHT22;703;51.162;13.574;2023-08-30T13:13:58;22.80;99.90
1417;DHT22;703;51.162;13.574;2023-08-30T13:16:24;22.80;99.90
1417;DHT22;703;51.162;13.574;2023-08-30T13:18:50;22.60;99.90
1417;DHT22;703;51.162;13.574;2023-08-30T13:21:15;22.90;99.90
1417;DHT22;703;51.162;13.574;2023-08-30T13:23:40;23.10;99.90
1417;DHT22;703;51.162;13.574;2023-08-30T13:26:06;23.30;99.90
1417;DHT22;703;51.162;13.574;2023-08-30T13:28:32;23.00;99.90
1417;DHT22;703;51.162;13.574;2023-08-30T13:30:59;23.40;99.90
1417;DHT22;703;51.162;13.574;2023-08-30T13:33:25;24.00;99.90
1417;DHT22;703;51.162;13.574;2023-08-30T13:35:51;23.10;99.90
1417;DHT22;703;51.162;13.574;2023-08-30T13:38:17;23.30;99.90
1417;DHT22;703;51.162;13.574;2023-08-30T13:40:42;23.10;99.90
1417;DHT22;703;51.162;13.574;2023-08-30T13:43:08;22.50;99.90
1417;DHT22;703;51.162;13.574;2023-08-30T13:45:33;22.40;99.90
1417;DHT22;703;51.162;13.574;2023-08-30T13:47:59;21.80;99.90
1417;DHT22;703;51.162;13.574;2023-08-30T13:50:25;21.90;99.90
1417;DHT22;703;51.162;13.574;2023-08-30T13:52:58;22.10;99.90
1417;DHT22;703;51.162;13.574;2023-08-30T13:55:24;21.90;99.90
1417;DHT22;703;51.162;13.574;2023-08-30T13:57:49;22.10;99.90
1417;DHT22;703;51.162;13.574;2023-08-30T14:00:15;22.80;99.90
1417;DHT22;703;51.162;13.574;2023-08-30T14:02:41;24.00;99.90
1417;DHT22;703;51.162;13.574;2023-08-30T14:05:07;24.50;99.90
1417;DHT22;703;51.162;13.574;2023-08-30T14:07:33;23.90;99.90
1417;DHT22;703;51.162;13.574;2023-08-30T14:09:59;24.20;99.90
1417;DHT22;703;51.162;13.574;2023-08-30T14:12:24;23.90;99.90
1417;DHT22;703;51.162;13.574;2023-08-30T14:14:50;23.40;99.90
1417;DHT22;703;51.162;13.574;2023-08-30T14:17:15;23.50;99.90
1417;DHT22;703;51.162;13.574;2023-08-30T14:19:41;23.40;99.90
1417;DHT22;703;51.162;13.574;2023-08-30T14:22:06;23.10;99.90
1417;DHT22;703;51.162;13.574;2023-08-30T14:24:32;22.60;99.90
1417;DHT22;703;51.162;13.574;2023-08-30T14:27:00;22.50;99.90
1417;DHT22;703;51.162;13.574;2023-08-30T14:29:25;22.30;99.90
1417;DHT22;703;51.162;13.574;2023-08-30T14:31:51;22.20;99.90
1417;DHT22;703;51.162;13.574;2023-08-30T14:34:16;22.90;99.90
1417;DHT22;703;51.162;13.574;2023-08-30T14:36:42;23.60;99.90
1417;DHT22;703;51.162;13.574;2023-08-30T14:39:08;23.80;99.90
1417;DHT22;703;51.162;13.574;2023-08-30T14:41:34;23.80;99.90
1417;DHT22;703;51.162;13.574;2023-08-30T14:44:02;23.70;99.90
1417;DHT22;703;51.162;13.574;2023-08-30T14:46:28;24.30;99.90
1417;DHT22;703;51.162;13.574;2023-08-30T14:48:54;23.80;99.90
1417;DHT22;703;51.162;13.574;2023-08-30T14:51:20;23.10;99.90
1417;DHT22;703;51.162;13.574;2023-08-30T14:53:45;22.20;99.90
1417;DHT22;703;51.162;13.574;2023-08-30T14:56:11;22.30;99.90
1417;DHT22;703;51.162;13.574;2023-08-30T14:58:37;22.90;99.90
1417;DHT22;703;51.162;13.574;2023-08-30T15:01:03;22.80;99.90
1417;DHT22;703;51.162;13.574;2023-08-30T15:03:28;22.10;99.90
1417;DHT22;703;51.162;13.574;2023-08-30T15:05:54;21.80;99.90
1417;DHT22;703;51.162;13.574;2023-08-30T15:08:20;21.90;99.90
1417;DHT22;703;51.162;13.574;2023-08-30T15:10:46;21.80;99.90
1417;DHT22;703;51.162;13.574;2023-08-30T15:13:11;21.70;99.90
1417;DHT22;703;51.162;13.574;2023-08-30T15:15:37;21.60;99.90
1417;DHT22;703;51.162;13.574;2023-08-30T15:18:03;21.80;99.90
1417;DHT22;703;51.162;13.574;2023-08-30T15:20:28;21.80;99.90
1417;DHT22;703;51.162;13.574;2023-08-30T15:22:54;21.60;99.90
1417;DHT22;703;51.162;13.574;2023-08-30T15:25:19;21.70;99.90
1417;DHT22;703;51.162;13.574;2023-08-30T15:27:45;21.90;99.90
1417;DHT22;703;51.162;13.574;2023-08-30T15:30:10;22.20;99.90
1417;DHT22;703;51.162;13.574;2023-08-30T15:32:37;22.50;99.90
1417;DHT22;703;51.162;13.574;2023-08-30T15:35:03;22.90;99.90
1417;DHT22;703;51.162;13.574;2023-08-30T15:37:29;23.10;99.90
1417;DHT22;703;51.162;13.574;2023-08-30T15:40:01;23.00;99.90
1417;DHT22;703;51.162;13.574;2023-08-30T15:42:30;23.10;99.90
1417;DHT22;703;51.162;13.574;2023-08-30T15:44:56;22.80;99.90
1417;DHT22;703;51.162;13.574;2023-08-30T15:47:21;22.60;99.90
1417;DHT22;703;51.162;13.574;2023-08-30T15:49:47;22.20;99.90
1417;DHT22;703;51.162;13.574;2023-08-30T15:52:12;22.10;99.90
1417;DHT22;703;51.162;13.574;2023-08-30T15:54:38;21.70;99.90
1417;DHT22;703;51.162;13.574;2023-08-30T15:57:03;21.60;99.90
1417;DHT22;703;51.162;13.574;2023-08-30T15:59:29;21.60;99.90
1417;DHT22;703;51.162;13.574;2023-08-30T16:01:55;21.40;99.90
1417;DHT22;703;51.162;13.574;2023-08-30T16:04:20;21.20;99.90